sensor_id;sensor_type;location;lat;lon;timestamp;temperature;humidity
3466;DHT22;1747;48.884;9.160;2022-07-06T00:00:07;19.50;94.00
3466;DHT22;1747;48.884;9.160;2022-07-06T00:02:35;19.50;93.70
3466;DHT22;1747;48.884;9.160;2022-07-06T00:05:02;19.50;93.80
3466;DHT22;1747;48.884;9.160;2022-07-06T00:07:30;19.50;93.80
3466;DHT22;1747;48.884;9.160;2022-07-06T00:09:57;19.50;93.60
3466;DHT22;1747;48.884;9.160;2022-07-06T00:12:24;19.50;93.70
3466;DHT22;1747;48.884;9.160;2022-07-06T00:14:51;19.50;93.70
3466;DHT22;1747;48.884;9.160;2022-07-06T00:17:18;19.50;93.70
3466;DHT22;1747;48.884;9.160;2022-07-06T00:19:44;19.50;93.80
3466;DHT22;1747;48.884;9.160;2022-07-06T00:22:11;19.50;93.90
3466;DHT22;1747;48.884;9.160;2022-07-06T00:24:39;19.50;94.00
3466;DHT22;1747;48.884;9.160;2022-07-06T00:27:06;19.50;94.00
3466;DHT22;1747;48.884;9.160;2022-07-06T00:29:33;19.50;94.20
3466;DHT22;1747;48.884;9.160;2022-07-06T00:32:00;19.50;94.00
3466;DHT22;1747;48.884;9.160;2022-07-06T00:34:27;19.50;94.10
3466;DHT22;1747;48.884;9.160;2022-07-06T00:36:53;19.50;93.90
3466;DHT22;1747;48.884;9.160;2022-07-06T00:39:20;19.50;94.20
3466;DHT22;1747;48.884;9.160;2022-07-06T00:41:48;19.50;93.80
3466;DHT22;1747;48.884;9.160;2022-07-06T00:44:15;19.50;93.70
3466;DHT22;1747;48.884;9.160;2022-07-06T00:46:42;19.50;93.80
3466;DHT22;1747;48.884;9.160;2022-07-06T00:49:09;19.50;93.80
3466;DHT22;1747;48.884;9.160;2022-07-06T00:51:56;19.40;93.90
3466;DHT22;1747;48.884;9.160;2022-07-06T00:54:24;19.40;93.90
3466;DHT22;1747;48.884;9.160;2022-07-06T00:56:53;19.40;93.90
3466;DHT22;1747;48.884;9.160;2022-07-06T00:59:20;19.40;93.60
3466;DHT22;1747;48.884;9.160;2022-07-06T01:01:47;19.40;93.60
3466;DHT22;1747;48.884;9.160;2022-07-06T01:04:14;19.40;93.60
3466;DHT22;1747;48.884;9.160;2022-07-06T01:06:41;19.50;93.40
3466;DHT22;1747;48.884;9.160;2022-07-06T01:09:07;19.50;93.10
3466;DHT22;1747;48.884;9.160;2022-07-06T01:11:34;19.50;93.20
3466;DHT22;1747;48.884;9.160;2022-07-06T01:14:03;19.50;93.20
3466;DHT22;1747;48.884;9.160;2022-07-06T01:16:30;19.50;93.10
3466;DHT22;1747;48.884;9.160;2022-07-06T01:18:57;19.50;93.00
3466;DHT22;1747;48.884;9.160;2022-07-06T01:21:26;19.40;92.90
3466;DHT22;1747;48.884;9.160;2022-07-06T01:23:52;19.40;93.00
3466;DHT22;1747;48.884;9.160;2022-07-06T01:26:21;19.30;93.10
3466;DHT22;1747;48.884;9.160;2022-07-06T01:28:49;19.30;93.30
3466;DHT22;1747;48.884;9.160;2022-07-06T01:31:18;19.30;93.40
3466;DHT22;1747;48.884;9.160;2022-07-06T01:33:48;19.30;93.30
3466;DHT22;1747;48.884;9.160;2022-07-06T01:36:16;19.30;93.30
3466;DHT22;1747;48.884;9.160;2022-07-06T01:38:45;19.20;93.40
3466;DHT22;1747;48.884;9.160;2022-07-06T01:41:12;19.20;93.40
3466;DHT22;1747;48.884;9.160;2022-07-06T01:43:39;19.20;93.50
3466;DHT22;1747;48.884;9.160;2022-07-06T01:46:06;19.10;93.50
3466;DHT22;1747;48.884;9.160;2022-07-06T01:48:33;19.00;93.60
3466;DHT22;1747;48.884;9.160;2022-07-06T01:51:00;18.90;93.50
3466;DHT22;1747;48.884;9.160;2022-07-06T05:16:39;18.20;99.90
3466;DHT22;1747;48.884;9.160;2022-07-06T05:19:06;18.30;99.90
3466;DHT22;1747;48.884;9.160;2022-07-06T05:21:32;18.30;99.90
3466;DHT22;1747;48.884;9.160;2022-07-06T05:23:59;18.30;99.90
3466;DHT22;1747;48.884;9.160;2022-07-06T05:26:26;18.40;99.90
3466;DHT22;1747;48.884;9.160;2022-07-06T05:28:53;18.40;99.90
3466;DHT22;1747;48.884;9.160;2022-07-06T05:31:20;18.40;99.90
3466;DHT22;1747;48.884;9.160;2022-07-06T05:33:48;18.50;99.90
3466;DHT22;1747;48.884;9.160;2022-07-06T05:36:15;18.60;99.90
3466;DHT22;1747;48.884;9.160;2022-07-06T05:38:42;18.70;99.90
3466;DHT22;1747;48.884;9.160;2022-07-06T05:41:09;18.70;99.90
3466;DHT22;1747;48.884;9.160;2022-07-06T05:43:36;18.70;99.90
3466;DHT22;1747;48.884;9.160;2022-07-06T05:46:03;18.70;99.90
3466;DHT22;1747;48.884;9.160;2022-07-06T05:48:30;18.80;99.90
3466;DHT22;1747;48.884;9.160;2022-07-06T05:51:15;18.80;99.90
3466;DHT22;1747;48.884;9.160;2022-07-06T05:53:42;18.80;99.90
3466;DHT22;1747;48.884;9.160;2022-07-06T05:56:09;18.70;99.90
3466;DHT22;1747;48.884;9.160;2022-07-06T05:58:36;18.70;99.90
3466;DHT22;1747;48.884;9.160;2022-07-06T06:01:02;18.80;99.90
3466;DHT22;1747;48.884;9.160;2022-07-06T06:03:29;18.80;99.90
3466;DHT22;1747;48.884;9.160;2022-07-06T06:05:56;18.80;99.90
3466;DHT22;1747;48.884;9.160;2022-07-06T06:08:24;19.00;99.90
3466;DHT22;1747;48.884;9.160;2022-07-06T06:10:51;19.10;99.70
3466;DHT22;1747;48.884;9.160;2022-07-06T06:13:18;19.10;99.80
3466;DHT22;1747;48.884;9.160;2022-07-06T06:15:45;19.10;99.80
3466;DHT22;1747;48.884;9.160;2022-07-06T06:18:12;19.10;99.70
3466;DHT22;1747;48.884;9.160;2022-07-06T06:20:42;19.20;98.90
3466;DHT22;1747;48.884;9.160;2022-07-06T06:23:09;19.10;99.10
3466;DHT22;1747;48.884;9.160;2022-07-06T06:25:38;19.10;99.80
3466;DHT22;1747;48.884;9.160;2022-07-06T06:28:07;19.10;99.80
3466;DHT22;1747;48.884;9.160;2022-07-06T06:30:35;19.10;99.90
3466;DHT22;1747;48.884;9.160;2022-07-06T06:33:09;19.10;99.90
3466;DHT22;1747;48.884;9.160;2022-07-06T06:35:37;19.10;99.50
3466;DHT22;1747;48.884;9.160;2022-07-06T06:38:04;19.30;99.40
3466;DHT22;1747;48.884;9.160;2022-07-06T06:40:31;19.50;98.90
3466;DHT22;1747;48.884;9.160;2022-07-06T06:42:59;19.50;99.10
3466;DHT22;1747;48.884;9.160;2022-07-06T06:45:26;19.60;98.60
3466;DHT22;1747;48.884;9.160;2022-07-06T06:47:53;19.60;98.10
3466;DHT22;1747;48.884;9.160;2022-07-06T06:50:20;19.70;99.00
3466;DHT22;1747;48.884;9.160;2022-07-06T06:52:49;19.70;98.70
3466;DHT22;1747;48.884;9.160;2022-07-06T06:55:16;19.90;98.80
3466;DHT22;1747;48.884;9.160;2022-07-06T06:57:43;20.00;98.20
3466;DHT22;1747;48.884;9.160;2022-07-06T07:00:12;20.20;98.00
3466;DHT22;1747;48.884;9.160;2022-07-06T07:02:39;20.30;97.70
3466;DHT22;1747;48.884;9.160;2022-07-06T07:05:07;20.30;97.80
3466;DHT22;1747;48.884;9.160;2022-07-06T07:07:33;20.20;97.80
3466;DHT22;1747;48.884;9.160;2022-07-06T07:10:00;20.20;97.90
3466;DHT22;1747;48.884;9.160;2022-07-06T07:12:28;20.20;97.80
3466;DHT22;1747;48.884;9.160;2022-07-06T07:14:55;20.20;98.00
3466;DHT22;1747;48.884;9.160;2022-07-06T07:17:23;20.40;97.30
3466;DHT22;1747;48.884;9.160;2022-07-06T07:19:50;20.70;97.90
3466;DHT22;1747;48.884;9.160;2022-07-06T07:22:17;20.80;97.60
3466;DHT22;1747;48.884;9.160;2022-07-06T07:24:44;20.80;97.50
3466;DHT22;1747;48.884;9.160;2022-07-06T07:27:11;20.70;97.30
3466;DHT22;1747;48.884;9.160;2022-07-06T07:29:37;20.70;97.00
3466;DHT22;1747;48.884;9.160;2022-07-06T07:32:05;20.90;96.60
3466;DHT22;1747;48.884;9.160;2022-07-06T07:34:33;20.80;96.50
3466;DHT22;1747;48.884;9.160;2022-07-06T07:37:00;21.00;96.50
3466;DHT22;1747;48.884;9.160;2022-07-06T07:39:27;21.10;96.60
3466;DHT22;1747;48.884;9.160;2022-07-06T07:41:54;21.00;96.80
3466;DHT22;1747;48.884;9.160;2022-07-06T07:44:20;21.00;96.80
3466;DHT22;1747;48.884;9.160;2022-07-06T07:46:47;21.00;96.90
3466;DHT22;1747;48.884;9.160;2022-07-06T07:49:14;21.00;96.80
3466;DHT22;1747;48.884;9.160;2022-07-06T07:51:42;21.20;96.40
3466;DHT22;1747;48.884;9.160;2022-07-06T07:54:09;21.30;95.80
3466;DHT22;1747;48.884;9.160;2022-07-06T07:56:36;21.40;95.80
3466;DHT22;1747;48.884;9.160;2022-07-06T07:59:06;21.50;95.80
3466;DHT22;1747;48.884;9.160;2022-07-06T08:01:33;21.70;95.50
3466;DHT22;1747;48.884;9.160;2022-07-06T08:04:00;21.60;96.30
3466;DHT22;1747;48.884;9.160;2022-07-06T08:06:26;21.70;95.60
3466;DHT22;1747;48.884;9.160;2022-07-06T08:08:55;21.60;95.90
3466;DHT22;1747;48.884;9.160;2022-07-06T08:11:21;21.70;95.70
3466;DHT22;1747;48.884;9.160;2022-07-06T08:13:48;21.70;95.90
3466;DHT22;1747;48.884;9.160;2022-07-06T08:16:15;21.80;96.10
3466;DHT22;1747;48.884;9.160;2022-07-06T08:18:42;21.90;95.90
3466;DHT22;1747;48.884;9.160;2022-07-06T08:21:09;21.90;96.30
3466;DHT22;1747;48.884;9.160;2022-07-06T08:23:36;21.90;95.70
3466;DHT22;1747;48.884;9.160;2022-07-06T08:26:04;22.00;95.60
3466;DHT22;1747;48.884;9.160;2022-07-06T08:28:31;22.10;95.40
3466;DHT22;1747;48.884;9.160;2022-07-06T08:30:58;22.30;94.40
3466;DHT22;1747;48.884;9.160;2022-07-06T08:33:25;22.40;94.30
3466;DHT22;1747;48.884;9.160;2022-07-06T08:35:52;22.50;94.00
3466;DHT22;1747;48.884;9.160;2022-07-06T08:38:19;22.60;93.70
3466;DHT22;1747;48.884;9.160;2022-07-06T08:40:47;22.70;93.30
3466;DHT22;1747;48.884;9.160;2022-07-06T08:43:16;22.70;93.50
3466;DHT22;1747;48.884;9.160;2022-07-06T08:45:44;22.70;93.90
3466;DHT22;1747;48.884;9.160;2022-07-06T08:48:12;22.70;93.50
3466;DHT22;1747;48.884;9.160;2022-07-06T08:50:39;22.60;93.80
3466;DHT22;1747;48.884;9.160;2022-07-06T08:53:06;22.80;93.40
3466;DHT22;1747;48.884;9.160;2022-07-06T08:55:33;22.80;93.70
3466;DHT22;1747;48.884;9.160;2022-07-06T08:58:01;22.90;93.40
3466;DHT22;1747;48.884;9.160;2022-07-06T09:00:32;22.90;93.20
3466;DHT22;1747;48.884;9.160;2022-07-06T09:02:59;23.00;93.30
3466;DHT22;1747;48.884;9.160;2022-07-06T09:05:28;23.10;92.70
3466;DHT22;1747;48.884;9.160;2022-07-06T09:07:55;23.10;92.70
3466;DHT22;1747;48.884;9.160;2022-07-06T09:10:23;23.20;92.40
3466;DHT22;1747;48.884;9.160;2022-07-06T09:12:51;23.20;92.50
3466;DHT22;1747;48.884;9.160;2022-07-06T09:15:18;23.20;92.00
3466;DHT22;1747;48.884;9.160;2022-07-06T09:17:46;23.30;92.20
3466;DHT22;1747;48.884;9.160;2022-07-06T09:20:13;23.30;92.20
3466;DHT22;1747;48.884;9.160;2022-07-06T09:22:41;23.60;91.80
3466;DHT22;1747;48.884;9.160;2022-07-06T09:25:10;23.80;91.70
3466;DHT22;1747;48.884;9.160;2022-07-06T09:27:37;23.80;92.00
3466;DHT22;1747;48.884;9.160;2022-07-06T09:30:06;23.80;91.70
3466;DHT22;1747;48.884;9.160;2022-07-06T09:32:38;24.00;91.20
3466;DHT22;1747;48.884;9.160;2022-07-06T09:35:07;24.00;90.90
3466;DHT22;1747;48.884;9.160;2022-07-06T09:37:34;24.00;90.80
3466;DHT22;1747;48.884;9.160;2022-07-06T09:40:00;24.00;91.10
3466;DHT22;1747;48.884;9.160;2022-07-06T09:42:29;24.00;90.90
3466;DHT22;1747;48.884;9.160;2022-07-06T09:44:55;24.00;91.10
3466;DHT22;1747;48.884;9.160;2022-07-06T09:47:26;24.00;90.70
3466;DHT22;1747;48.884;9.160;2022-07-06T09:49:55;24.00;90.50
3466;DHT22;1747;48.884;9.160;2022-07-06T09:52:23;23.90;90.90
3466;DHT22;1747;48.884;9.160;2022-07-06T09:54:50;23.90;91.00
3466;DHT22;1747;48.884;9.160;2022-07-06T09:57:17;24.00;90.70
3466;DHT22;1747;48.884;9.160;2022-07-06T09:59:50;24.00;90.90
3466;DHT22;1747;48.884;9.160;2022-07-06T10:02:20;24.00;91.00
3466;DHT22;1747;48.884;9.160;2022-07-06T10:04:48;24.30;90.30
3466;DHT22;1747;48.884;9.160;2022-07-06T10:07:16;24.40;90.30
3466;DHT22;1747;48.884;9.160;2022-07-06T10:09:45;24.60;90.10
3466;DHT22;1747;48.884;9.160;2022-07-06T10:12:14;24.70;90.00
3466;DHT22;1747;48.884;9.160;2022-07-06T10:14:43;24.80;89.00
3466;DHT22;1747;48.884;9.160;2022-07-06T10:17:11;24.80;89.00
3466;DHT22;1747;48.884;9.160;2022-07-06T10:19:39;24.70;88.40
3466;DHT22;1747;48.884;9.160;2022-07-06T10:22:07;24.80;89.10
3466;DHT22;1747;48.884;9.160;2022-07-06T10:24:34;24.90;88.80
3466;DHT22;1747;48.884;9.160;2022-07-06T10:27:10;25.00;88.90
3466;DHT22;1747;48.884;9.160;2022-07-06T10:29:38;25.10;87.70
3466;DHT22;1747;48.884;9.160;2022-07-06T10:32:06;25.10;87.60
3466;DHT22;1747;48.884;9.160;2022-07-06T10:34:34;25.10;87.30
3466;DHT22;1747;48.884;9.160;2022-07-06T10:37:02;25.00;87.40
3466;DHT22;1747;48.884;9.160;2022-07-06T10:39:32;24.90;86.70
3466;DHT22;1747;48.884;9.160;2022-07-06T10:45:49;24.70;86.10
3466;DHT22;1747;48.884;9.160;2022-07-06T10:48:17;24.80;86.90
3466;DHT22;1747;48.884;9.160;2022-07-06T10:50:48;25.00;86.30
3466;DHT22;1747;48.884;9.160;2022-07-06T10:53:16;25.10;85.60
3466;DHT22;1747;48.884;9.160;2022-07-06T10:55:44;25.10;85.20
3466;DHT22;1747;48.884;9.160;2022-07-06T10:58:13;25.20;85.20
3466;DHT22;1747;48.884;9.160;2022-07-06T11:00:50;25.20;83.50
3466;DHT22;1747;48.884;9.160;2022-07-06T11:03:30;25.20;83.70
3466;DHT22;1747;48.884;9.160;2022-07-06T11:05:58;25.20;84.50
3466;DHT22;1747;48.884;9.160;2022-07-06T11:08:41;25.20;85.10
3466;DHT22;1747;48.884;9.160;2022-07-06T11:11:10;25.10;84.50
3466;DHT22;1747;48.884;9.160;2022-07-06T11:13:43;25.20;84.40
3466;DHT22;1747;48.884;9.160;2022-07-06T11:16:11;25.10;84.00
3466;DHT22;1747;48.884;9.160;2022-07-06T11:18:42;25.00;83.90
3466;DHT22;1747;48.884;9.160;2022-07-06T11:21:20;24.90;83.90
3466;DHT22;1747;48.884;9.160;2022-07-06T11:23:49;25.00;84.40
3466;DHT22;1747;48.884;9.160;2022-07-06T11:26:17;25.20;84.30
3466;DHT22;1747;48.884;9.160;2022-07-06T11:33:52;25.40;83.50
3466;DHT22;1747;48.884;9.160;2022-07-06T11:36:21;25.50;82.80
3466;DHT22;1747;48.884;9.160;2022-07-06T11:38:50;25.50;82.80
3466;DHT22;1747;48.884;9.160;2022-07-06T11:41:17;25.50;81.90
3466;DHT22;1747;48.884;9.160;2022-07-06T11:44:06;25.50;81.50
3466;DHT22;1747;48.884;9.160;2022-07-06T11:46:34;25.50;81.30
3466;DHT22;1747;48.884;9.160;2022-07-06T11:49:05;25.70;81.40
3466;DHT22;1747;48.884;9.160;2022-07-06T11:51:34;26.00;80.60
3466;DHT22;1747;48.884;9.160;2022-07-06T11:54:07;26.20;79.40
3466;DHT22;1747;48.884;9.160;2022-07-06T11:56:34;26.40;79.30
3466;DHT22;1747;48.884;9.160;2022-07-06T11:59:02;26.60;78.60
3466;DHT22;1747;48.884;9.160;2022-07-06T12:01:30;27.10;76.80
3466;DHT22;1747;48.884;9.160;2022-07-06T12:03:58;27.40;77.20
3466;DHT22;1747;48.884;9.160;2022-07-06T12:06:27;28.00;75.20
3466;DHT22;1747;48.884;9.160;2022-07-06T12:08:55;28.30;74.40
3466;DHT22;1747;48.884;9.160;2022-07-06T12:11:24;28.20;74.00
3466;DHT22;1747;48.884;9.160;2022-07-06T12:13:53;28.20;72.20
3466;DHT22;1747;48.884;9.160;2022-07-06T12:16:21;28.30;72.50
3466;DHT22;1747;48.884;9.160;2022-07-06T12:18:50;28.30;72.80
3466;DHT22;1747;48.884;9.160;2022-07-06T12:21:19;28.80;72.20
3466;DHT22;1747;48.884;9.160;2022-07-06T12:23:49;28.80;70.70
3466;DHT22;1747;48.884;9.160;2022-07-06T12:26:19;28.50;72.20
3466;DHT22;1747;48.884;9.160;2022-07-06T12:28:54;28.80;71.20
3466;DHT22;1747;48.884;9.160;2022-07-06T12:31:32;28.90;70.40
3466;DHT22;1747;48.884;9.160;2022-07-06T12:33:59;29.30;68.70
3466;DHT22;1747;48.884;9.160;2022-07-06T12:36:26;30.00;69.00
3466;DHT22;1747;48.884;9.160;2022-07-06T12:38:54;30.40;67.80
3466;DHT22;1747;48.884;9.160;2022-07-06T12:41:29;30.60;66.70
3466;DHT22;1747;48.884;9.160;2022-07-06T12:44:07;30.60;66.00
3466;DHT22;1747;48.884;9.160;2022-07-06T12:46:36;30.10;66.00
3466;DHT22;1747;48.884;9.160;2022-07-06T12:49:11;30.30;65.80
3466;DHT22;1747;48.884;9.160;2022-07-06T12:51:58;30.50;66.00
3466;DHT22;1747;48.884;9.160;2022-07-06T12:54:29;31.00;63.40
3466;DHT22;1747;48.884;9.160;2022-07-06T12:57:05;31.30;63.20
3466;DHT22;1747;48.884;9.160;2022-07-06T12:59:35;31.50;62.40
3466;DHT22;1747;48.884;9.160;2022-07-06T13:02:03;31.80;61.40
3466;DHT22;1747;48.884;9.160;2022-07-06T13:04:31;32.40;61.00
3466;DHT22;1747;48.884;9.160;2022-07-06T13:06:59;32.20;60.30
3466;DHT22;1747;48.884;9.160;2022-07-06T13:09:28;32.10;60.00
3466;DHT22;1747;48.884;9.160;2022-07-06T13:11:56;31.70;60.10
3466;DHT22;1747;48.884;9.160;2022-07-06T13:14:23;31.30;60.80
3466;DHT22;1747;48.884;9.160;2022-07-06T13:16:49;31.00;61.40
3466;DHT22;1747;48.884;9.160;2022-07-06T13:19:16;30.50;60.10
3466;DHT22;1747;48.884;9.160;2022-07-06T13:21:43;30.00;61.10
3466;DHT22;1747;48.884;9.160;2022-07-06T13:24:11;29.60;61.80
3466;DHT22;1747;48.884;9.160;2022-07-06T13:26:39;29.40;62.80
3466;DHT22;1747;48.884;9.160;2022-07-06T13:29:06;29.40;62.00
3466;DHT22;1747;48.884;9.160;2022-07-06T13:31:36;29.70;62.60
3466;DHT22;1747;48.884;9.160;2022-07-06T13:34:04;30.00;61.60
3466;DHT22;1747;48.884;9.160;2022-07-06T13:36:31;30.70;61.20
3466;DHT22;1747;48.884;9.160;2022-07-06T13:38:58;31.20;60.90
3466;DHT22;1747;48.884;9.160;2022-07-06T13:41:25;31.90;60.20
3466;DHT22;1747;48.884;9.160;2022-07-06T13:43:53;32.60;57.80
3466;DHT22;1747;48.884;9.160;2022-07-06T13:46:20;32.70;57.50
3466;DHT22;1747;48.884;9.160;2022-07-06T13:48:47;32.80;57.50
3466;DHT22;1747;48.884;9.160;2022-07-06T13:51:15;32.80;57.40
3466;DHT22;1747;48.884;9.160;2022-07-06T13:53:42;32.80;57.40
3466;DHT22;1747;48.884;9.160;2022-07-06T13:56:09;33.10;56.40
3466;DHT22;1747;48.884;9.160;2022-07-06T13:58:36;33.30;55.70
3466;DHT22;1747;48.884;9.160;2022-07-06T14:01:05;33.60;55.60
3466;DHT22;1747;48.884;9.160;2022-07-06T14:03:32;33.60;55.30
3466;DHT22;1747;48.884;9.160;2022-07-06T14:05:59;33.60;53.60
3466;DHT22;1747;48.884;9.160;2022-07-06T14:08:27;33.70;53.50
3466;DHT22;1747;48.884;9.160;2022-07-06T14:10:55;33.90;55.00
3466;DHT22;1747;48.884;9.160;2022-07-06T14:13:22;34.50;52.40
3466;DHT22;1747;48.884;9.160;2022-07-06T14:15:49;34.50;52.20
3466;DHT22;1747;48.884;9.160;2022-07-06T14:18:18;34.70;51.80
3466;DHT22;1747;48.884;9.160;2022-07-06T14:20:45;34.90;52.10
3466;DHT22;1747;48.884;9.160;2022-07-06T14:23:12;35.20;51.80
3466;DHT22;1747;48.884;9.160;2022-07-06T14:25:40;35.20;50.40
3466;DHT22;1747;48.884;9.160;2022-07-06T14:28:07;35.00;50.30
3466;DHT22;1747;48.884;9.160;2022-07-06T14:30:34;35.20;51.60
3466;DHT22;1747;48.884;9.160;2022-07-06T14:33:03;35.30;50.90
3466;DHT22;1747;48.884;9.160;2022-07-06T14:35:34;35.50;51.00
3466;DHT22;1747;48.884;9.160;2022-07-06T14:38:01;35.70;49.80
3466;DHT22;1747;48.884;9.160;2022-07-06T14:40:28;35.80;49.80
3466;DHT22;1747;48.884;9.160;2022-07-06T14:42:56;35.90;50.40
3466;DHT22;1747;48.884;9.160;2022-07-06T14:45:23;36.10;50.00
3466;DHT22;1747;48.884;9.160;2022-07-06T14:47:50;36.20;49.30
3466;DHT22;1747;48.884;9.160;2022-07-06T14:50:17;36.40;48.70
3466;DHT22;1747;48.884;9.160;2022-07-06T14:52:46;36.30;48.00
3466;DHT22;1747;48.884;9.160;2022-07-06T14:55:13;36.30;48.60
3466;DHT22;1747;48.884;9.160;2022-07-06T14:57:40;36.30;48.50
3466;DHT22;1747;48.884;9.160;2022-07-06T15:00:07;36.40;47.50
3466;DHT22;1747;48.884;9.160;2022-07-06T15:02:35;36.70;47.20
3466;DHT22;1747;48.884;9.160;2022-07-06T15:05:02;36.70;47.00
3466;DHT22;1747;48.884;9.160;2022-07-06T15:07:29;36.70;46.80
3466;DHT22;1747;48.884;9.160;2022-07-06T15:09:57;36.80;47.00
3466;DHT22;1747;48.884;9.160;2022-07-06T15:12:24;37.10;47.70
3466;DHT22;1747;48.884;9.160;2022-07-06T15:14:51;36.80;45.70
3466;DHT22;1747;48.884;9.160;2022-07-06T15:17:18;36.50;46.60
3466;DHT22;1747;48.884;9.160;2022-07-06T15:19:45;36.20;46.50
3466;DHT22;1747;48.884;9.160;2022-07-06T15:22:12;36.20;47.00
3466;DHT22;1747;48.884;9.160;2022-07-06T15:24:39;36.10;46.10
3466;DHT22;1747;48.884;9.160;2022-07-06T15:27:07;35.70;46.80
3466;DHT22;1747;48.884;9.160;2022-07-06T15:29:34;35.30;46.70
3466;DHT22;1747;48.884;9.160;2022-07-06T15:32:01;34.70;47.30
3466;DHT22;1747;48.884;9.160;2022-07-06T15:34:28;34.20;47.90
3466;DHT22;1747;48.884;9.160;2022-07-06T15:36:55;33.70;48.80
3466;DHT22;1747;48.884;9.160;2022-07-06T15:39:22;33.30;49.20
3466;DHT22;1747;48.884;9.160;2022-07-06T15:41:49;32.70;49.60
3466;DHT22;1747;48.884;9.160;2022-07-06T15:44:17;32.10;49.50
3466;DHT22;1747;48.884;9.160;2022-07-06T15:46:44;31.40;50.20
3466;DHT22;1747;48.884;9.160;2022-07-06T15:49:14;30.90;50.90
3466;DHT22;1747;48.884;9.160;2022-07-06T15:51:42;30.40;51.40
3466;DHT22;1747;48.884;9.160;2022-07-06T15:54:09;30.20;52.50
3466;DHT22;1747;48.884;9.160;2022-07-06T15:56:36;29.80;52.90
3466;DHT22;1747;48.884;9.160;2022-07-06T15:59:17;29.70;53.40
3466;DHT22;1747;48.884;9.160;2022-07-06T16:01:44;29.40;52.70
3466;DHT22;1747;48.884;9.160;2022-07-06T16:04:11;29.10;52.30
3466;DHT22;1747;48.884;9.160;2022-07-06T16:06:38;28.90;52.60
3466;DHT22;1747;48.884;9.160;2022-07-06T16:09:05;28.60;52.60
3466;DHT22;1747;48.884;9.160;2022-07-06T16:11:31;28.60;53.40
3466;DHT22;1747;48.884;9.160;2022-07-06T16:13:58;28.40;52.90
3466;DHT22;1747;48.884;9.160;2022-07-06T16:16:26;28.30;53.20
3466;DHT22;1747;48.884;9.160;2022-07-06T16:18:53;28.40;54.20
3466;DHT22;1747;48.884;9.160;2022-07-06T16:21:20;28.40;53.80
3466;DHT22;1747;48.884;9.160;2022-07-06T16:23:47;28.20;53.10
3466;DHT22;1747;48.884;9.160;2022-07-06T16:26:14;28.10;53.60
3466;DHT22;1747;48.884;9.160;2022-07-06T16:28:41;28.10;54.10
3466;DHT22;1747;48.884;9.160;2022-07-06T16:31:08;28.10;53.40
3466;DHT22;1747;48.884;9.160;2022-07-06T16:33:36;28.00;53.10
3466;DHT22;1747;48.884;9.160;2022-07-06T16:36:05;28.00;53.50
3466;DHT22;1747;48.884;9.160;2022-07-06T16:38:32;27.90;52.90
3466;DHT22;1747;48.884;9.160;2022-07-06T16:40:59;27.80;53.00
3466;DHT22;1747;48.884;9.160;2022-07-06T16:43:26;27.60;52.40
3466;DHT22;1747;48.884;9.160;2022-07-06T16:45:53;27.50;53.20
3466;DHT22;1747;48.884;9.160;2022-07-06T16:48:20;27.40;54.10
3466;DHT22;1747;48.884;9.160;2022-07-06T16:50:49;27.30;53.70
3466;DHT22;1747;48.884;9.160;2022-07-06T16:53:15;27.20;53.70
3466;DHT22;1747;48.884;9.160;2022-07-06T16:55:42;27.10;53.80
3466;DHT22;1747;48.884;9.160;2022-07-06T16:58:09;27.00;54.00
3466;DHT22;1747;48.884;9.160;2022-07-06T17:00:36;26.90;54.30
3466;DHT22;1747;48.884;9.160;2022-07-06T17:03:03;26.90;54.70
3466;DHT22;1747;48.884;9.160;2022-07-06T17:05:30;26.80;54.10
3466;DHT22;1747;48.884;9.160;2022-07-06T17:07:58;26.70;54.70
3466;DHT22;1747;48.884;9.160;2022-07-06T17:10:25;26.60;54.90
3466;DHT22;1747;48.884;9.160;2022-07-06T17:12:52;26.60;56.30
3466;DHT22;1747;48.884;9.160;2022-07-06T17:15:19;26.60;55.30
3466;DHT22;1747;48.884;9.160;2022-07-06T17:17:46;26.60;55.90
3466;DHT22;1747;48.884;9.160;2022-07-06T17:20:13;26.50;55.00
3466;DHT22;1747;48.884;9.160;2022-07-06T17:22:40;26.50;55.20
3466;DHT22;1747;48.884;9.160;2022-07-06T17:25:09;26.50;54.50
3466;DHT22;1747;48.884;9.160;2022-07-06T17:27:35;26.40;54.70
3466;DHT22;1747;48.884;9.160;2022-07-06T17:30:03;26.40;54.60
3466;DHT22;1747;48.884;9.160;2022-07-06T18:54:21;24.00;58.90
3466;DHT22;1747;48.884;9.160;2022-07-06T18:56:48;23.90;60.40
3466;DHT22;1747;48.884;9.160;2022-07-06T18:59:14;23.90;60.50
3466;DHT22;1747;48.884;9.160;2022-07-06T19:01:41;23.90;61.20
3466;DHT22;1747;48.884;9.160;2022-07-06T19:04:08;23.80;58.90
3466;DHT22;1747;48.884;9.160;2022-07-06T19:06:35;23.60;59.00
3466;DHT22;1747;48.884;9.160;2022-07-06T19:11:33;23.30;59.80
3466;DHT22;1747;48.884;9.160;2022-07-06T19:13:59;23.20;60.40
3466;DHT22;1747;48.884;9.160;2022-07-06T19:16:26;23.10;59.80
3466;DHT22;1747;48.884;9.160;2022-07-06T19:18:53;22.90;60.60
3466;DHT22;1747;48.884;9.160;2022-07-06T19:21:20;22.90;60.60
3466;DHT22;1747;48.884;9.160;2022-07-06T19:23:47;22.80;60.20
3466;DHT22;1747;48.884;9.160;2022-07-06T19:26:14;22.70;60.70
3466;DHT22;1747;48.884;9.160;2022-07-06T19:28:43;22.60;61.20
3466;DHT22;1747;48.884;9.160;2022-07-06T19:31:09;22.50;61.20
3466;DHT22;1747;48.884;9.160;2022-07-06T19:33:36;22.40;61.60
3466;DHT22;1747;48.884;9.160;2022-07-06T19:36:04;22.40;63.00
3466;DHT22;1747;48.884;9.160;2022-07-06T19:38:31;22.30;62.40
3466;DHT22;1747;48.884;9.160;2022-07-06T19:40:58;22.30;62.80
3466;DHT22;1747;48.884;9.160;2022-07-06T19:43:25;22.20;62.60
3466;DHT22;1747;48.884;9.160;2022-07-06T19:45:53;22.20;63.80
3466;DHT22;1747;48.884;9.160;2022-07-06T19:48:20;22.10;63.80
3466;DHT22;1747;48.884;9.160;2022-07-06T19:50:47;22.10;64.10
3466;DHT22;1747;48.884;9.160;2022-07-06T19:53:14;22.00;64.10
3466;DHT22;1747;48.884;9.160;2022-07-06T19:55:41;21.90;63.90
3466;DHT22;1747;48.884;9.160;2022-07-06T19:58:08;21.80;64.10
3466;DHT22;1747;48.884;9.160;2022-07-06T20:00:35;21.70;64.40
3466;DHT22;1747;48.884;9.160;2022-07-06T20:03:03;21.70;65.80
3466;DHT22;1747;48.884;9.160;2022-07-06T20:05:30;21.70;65.70
3466;DHT22;1747;48.884;9.160;2022-07-06T20:08:01;21.60;64.90
3466;DHT22;1747;48.884;9.160;2022-07-06T20:10:27;21.50;64.90
3466;DHT22;1747;48.884;9.160;2022-07-06T20:12:55;21.40;64.90
3466;DHT22;1747;48.884;9.160;2022-07-06T20:15:21;21.40;65.20
3466;DHT22;1747;48.884;9.160;2022-07-06T20:17:48;21.30;65.30
3466;DHT22;1747;48.884;9.160;2022-07-06T20:20:16;21.20;65.50
3466;DHT22;1747;48.884;9.160;2022-07-06T20:22:43;21.20;65.60
3466;DHT22;1747;48.884;9.160;2022-07-06T20:25:10;21.20;65.70
3466;DHT22;1747;48.884;9.160;2022-07-06T20:27:37;21.20;66.20
3466;DHT22;1747;48.884;9.160;2022-07-06T20:30:04;21.10;66.00
3466;DHT22;1747;48.884;9.160;2022-07-06T20:32:32;21.10;66.10
3466;DHT22;1747;48.884;9.160;2022-07-06T20:34:58;21.00;66.10
3466;DHT22;1747;48.884;9.160;2022-07-06T20:37:27;21.00;66.60
3466;DHT22;1747;48.884;9.160;2022-07-06T20:39:54;20.90;67.20
3466;DHT22;1747;48.884;9.160;2022-07-06T20:42:20;20.90;67.70
3466;DHT22;1747;48.884;9.160;2022-07-06T20:44:47;20.80;68.00
3466;DHT22;1747;48.884;9.160;2022-07-06T20:47:14;20.70;68.50
3466;DHT22;1747;48.884;9.160;2022-07-06T20:49:42;20.60;68.90
3466;DHT22;1747;48.884;9.160;2022-07-06T20:52:09;20.50;69.00
3466;DHT22;1747;48.884;9.160;2022-07-06T20:54:37;20.50;69.30
3466;DHT22;1747;48.884;9.160;2022-07-06T20:57:05;20.40;69.50
3466;DHT22;1747;48.884;9.160;2022-07-06T20:59:32;20.40;70.40
3466;DHT22;1747;48.884;9.160;2022-07-06T21:02:01;20.30;70.90